sensor_id;sensor_type;location;lat;lon;timestamp;P1;durP1;ratioP1;P2;durP2;ratioP2
38972;SDS011;25333;50.762;4.470;2023-07-13T00:01:30;3.97;;;0.80;;
38972;SDS011;25333;50.762;4.470;2023-07-13T00:03:57;4.20;;;0.70;;
38972;SDS011;25333;50.762;4.470;2023-07-13T00:06:23;2.63;;;0.85;;
38972;SDS011;25333;50.762;4.470;2023-07-13T00:08:49;2.22;;;0.80;;
38972;SDS011;25333;50.762;4.470;2023-07-13T00:11:15;5.67;;;0.63;;
38972;SDS011;25333;50.762;4.470;2023-07-13T00:13:43;4.53;;;0.80;;
38972;SDS011;25333;50.762;4.470;2023-07-13T00:16:09;2.90;;;0.50;;
38972;SDS011;25333;50.762;4.470;2023-07-13T00:18:37;3.00;;;0.85;;
38972;SDS011;25333;50.762;4.470;2023-07-13T00:21:02;4.75;;;1.35;;
38972;SDS011;25333;50.762;4.470;2023-07-13T00:23:34;2.30;;;0.90;;
38972;SDS011;25333;50.762;4.470;2023-07-13T00:26:02;3.63;;;1.00;;
38972;SDS011;25333;50.762;4.470;2023-07-13T00:28:29;4.25;;;1.20;;
38972;SDS011;25333;50.762;4.470;2023-07-13T00:30:54;2.00;;;0.70;;
38972;SDS011;25333;50.762;4.470;2023-07-13T00:33:20;4.53;;;0.90;;
38972;SDS011;25333;50.762;4.470;2023-07-13T00:35:47;5.53;;;1.35;;
38972;SDS011;25333;50.762;4.470;2023-07-13T00:38:13;3.42;;;0.75;;
38972;SDS011;25333;50.762;4.470;2023-07-13T00:40:39;6.78;;;0.95;;
38972;SDS011;25333;50.762;4.470;2023-07-13T00:43:15;5.43;;;0.73;;
38972;SDS011;25333;50.762;4.470;2023-07-13T00:48:08;3.57;;;0.70;;
38972;SDS011;25333;50.762;4.470;2023-07-13T00:50:34;8.07;;;1.42;;
38972;SDS011;25333;50.762;4.470;2023-07-13T00:53:00;7.45;;;1.20;;
38972;SDS011;25333;50.762;4.470;2023-07-13T00:55:26;2.60;;;0.60;;
38972;SDS011;25333;50.762;4.470;2023-07-13T00:57:52;5.50;;;1.05;;
38972;SDS011;25333;50.762;4.470;2023-07-13T01:00:18;5.78;;;1.33;;
38972;SDS011;25333;50.762;4.470;2023-07-13T01:02:47;3.75;;;0.88;;
38972;SDS011;25333;50.762;4.470;2023-07-13T01:05:15;8.38;;;0.95;;
38972;SDS011;25333;50.762;4.470;2023-07-13T01:07:43;5.85;;;1.13;;
38972;SDS011;25333;50.762;4.470;2023-07-13T01:10:10;4.70;;;1.55;;
38972;SDS011;25333;50.762;4.470;2023-07-13T01:12:37;6.35;;;1.10;;
38972;SDS011;25333;50.762;4.470;2023-07-13T01:15:03;4.05;;;0.88;;
38972;SDS011;25333;50.762;4.470;2023-07-13T01:17:29;6.55;;;1.25;;
38972;SDS011;25333;50.762;4.470;2023-07-13T01:19:58;4.35;;;0.80;;
38972;SDS011;25333;50.762;4.470;2023-07-13T01:22:25;4.32;;;1.00;;
38972;SDS011;25333;50.762;4.470;2023-07-13T01:24:52;6.25;;;0.73;;
38972;SDS011;25333;50.762;4.470;2023-07-13T01:27:22;6.63;;;1.17;;
38972;SDS011;25333;50.762;4.470;2023-07-13T01:29:50;5.05;;;0.80;;
38972;SDS011;25333;50.762;4.470;2023-07-13T01:32:18;5.40;;;0.90;;
38972;SDS011;25333;50.762;4.470;2023-07-13T01:34:48;3.30;;;0.98;;
38972;SDS011;25333;50.762;4.470;2023-07-13T01:37:13;5.63;;;1.15;;
38972;SDS011;25333;50.762;4.470;2023-07-13T01:39:39;4.25;;;0.82;;
38972;SDS011;25333;50.762;4.470;2023-07-13T01:42:05;6.72;;;1.10;;
38972;SDS011;25333;50.762;4.470;2023-07-13T01:44:31;3.72;;;0.93;;
38972;SDS011;25333;50.762;4.470;2023-07-13T01:46:56;3.55;;;0.70;;
38972;SDS011;25333;50.762;4.470;2023-07-13T01:49:22;6.28;;;1.00;;
38972;SDS011;25333;50.762;4.470;2023-07-13T01:51:48;4.23;;;1.00;;
38972;SDS011;25333;50.762;4.470;2023-07-13T01:54:13;4.47;;;0.93;;
38972;SDS011;25333;50.762;4.470;2023-07-13T01:56:39;7.22;;;1.10;;
38972;SDS011;25333;50.762;4.470;2023-07-13T01:59:06;4.53;;;1.35;;
38972;SDS011;25333;50.762;4.470;2023-07-13T02:01:33;5.80;;;0.90;;
38972;SDS011;25333;50.762;4.470;2023-07-13T02:03:58;4.18;;;1.05;;
38972;SDS011;25333;50.762;4.470;2023-07-13T02:06:24;3.88;;;1.27;;
38972;SDS011;25333;50.762;4.470;2023-07-13T02:08:49;5.23;;;0.83;;
38972;SDS011;25333;50.762;4.470;2023-07-13T02:11:15;5.17;;;1.10;;
38972;SDS011;25333;50.762;4.470;2023-07-13T02:13:41;3.07;;;0.93;;
38972;SDS011;25333;50.762;4.470;2023-07-13T02:16:06;4.07;;;0.90;;
38972;SDS011;25333;50.762;4.470;2023-07-13T02:18:32;2.78;;;0.95;;
38972;SDS011;25333;50.762;4.470;2023-07-13T02:20:58;4.15;;;1.08;;
38972;SDS011;25333;50.762;4.470;2023-07-13T02:23:23;6.70;;;1.00;;
38972;SDS011;25333;50.762;4.470;2023-07-13T02:25:49;6.50;;;1.10;;
38972;SDS011;25333;50.762;4.470;2023-07-13T02:28:18;7.10;;;1.65;;
38972;SDS011;25333;50.762;4.470;2023-07-13T02:30:44;7.22;;;0.95;;
38972;SDS011;25333;50.762;4.470;2023-07-13T02:33:10;3.47;;;0.83;;
38972;SDS011;25333;50.762;4.470;2023-07-13T02:35:35;6.43;;;1.37;;
38972;SDS011;25333;50.762;4.470;2023-07-13T02:38:01;3.53;;;1.00;;
38972;SDS011;25333;50.762;4.470;2023-07-13T02:40:26;2.63;;;0.80;;
38972;SDS011;25333;50.762;4.470;2023-07-13T02:42:52;4.25;;;1.20;;
38972;SDS011;25333;50.762;4.470;2023-07-13T02:45:17;5.95;;;1.02;;
38972;SDS011;25333;50.762;4.470;2023-07-13T02:47:43;6.33;;;1.13;;
38972;SDS011;25333;50.762;4.470;2023-07-13T02:50:09;4.07;;;1.10;;
38972;SDS011;25333;50.762;4.470;2023-07-13T02:52:34;4.07;;;0.90;;
38972;SDS011;25333;50.762;4.470;2023-07-13T02:55:00;6.22;;;1.27;;
38972;SDS011;25333;50.762;4.470;2023-07-13T02:57:26;4.20;;;1.33;;
38972;SDS011;25333;50.762;4.470;2023-07-13T02:59:53;5.13;;;1.40;;
38972;SDS011;25333;50.762;4.470;2023-07-13T03:02:18;4.72;;;1.17;;
38972;SDS011;25333;50.762;4.470;2023-07-13T03:04:44;7.57;;;2.00;;
38972;SDS011;25333;50.762;4.470;2023-07-13T03:07:10;5.50;;;1.40;;
38972;SDS011;25333;50.762;4.470;2023-07-13T03:09:35;3.67;;;1.02;;
38972;SDS011;25333;50.762;4.470;2023-07-13T03:12:01;4.70;;;1.38;;
38972;SDS011;25333;50.762;4.470;2023-07-13T03:14:27;4.13;;;0.77;;
38972;SDS011;25333;50.762;4.470;2023-07-13T03:16:53;3.83;;;0.93;;
38972;SDS011;25333;50.762;4.470;2023-07-13T03:19:18;5.00;;;1.40;;
38972;SDS011;25333;50.762;4.470;2023-07-13T03:21:44;7.07;;;1.52;;
38972;SDS011;25333;50.762;4.470;2023-07-13T03:24:10;3.60;;;0.93;;
38972;SDS011;25333;50.762;4.470;2023-07-13T03:26:36;3.40;;;1.20;;
38972;SDS011;25333;50.762;4.470;2023-07-13T03:29:02;4.22;;;1.00;;
38972;SDS011;25333;50.762;4.470;2023-07-13T03:31:28;4.63;;;1.33;;
38972;SDS011;25333;50.762;4.470;2023-07-13T03:33:55;5.22;;;1.08;;
38972;SDS011;25333;50.762;4.470;2023-07-13T03:36:23;3.95;;;1.30;;
38972;SDS011;25333;50.762;4.470;2023-07-13T03:38:52;5.15;;;1.40;;
38972;SDS011;25333;50.762;4.470;2023-07-13T03:41:19;4.25;;;1.17;;
38972;SDS011;25333;50.762;4.470;2023-07-13T03:43:46;6.35;;;1.58;;
38972;SDS011;25333;50.762;4.470;2023-07-13T03:46:13;4.03;;;1.70;;
38972;SDS011;25333;50.762;4.470;2023-07-13T03:48:40;4.32;;;1.23;;
38972;SDS011;25333;50.762;4.470;2023-07-13T03:51:08;7.35;;;1.48;;
38972;SDS011;25333;50.762;4.470;2023-07-13T03:53:37;4.43;;;1.50;;
38972;SDS011;25333;50.762;4.470;2023-07-13T03:56:04;5.45;;;1.38;;
38972;SDS011;25333;50.762;4.470;2023-07-13T04:00:58;4.35;;;0.90;;
38972;SDS011;25333;50.762;4.470;2023-07-13T04:03:25;10.13;;;2.30;;
38972;SDS011;25333;50.762;4.470;2023-07-13T04:05:52;7.38;;;1.85;;
38972;SDS011;25333;50.762;4.470;2023-07-13T04:08:28;8.50;;;1.98;;
38972;SDS011;25333;50.762;4.470;2023-07-13T04:10:55;3.80;;;1.00;;
38972;SDS011;25333;50.762;4.470;2023-07-13T04:13:22;5.03;;;1.20;;
38972;SDS011;25333;50.762;4.470;2023-07-13T04:15:48;8.00;;;1.48;;
38972;SDS011;25333;50.762;4.470;2023-07-13T04:18:14;5.40;;;1.67;;
38972;SDS011;25333;50.762;4.470;2023-07-13T04:20:39;6.78;;;1.48;;
38972;SDS011;25333;50.762;4.470;2023-07-13T04:23:05;6.85;;;1.70;;
38972;SDS011;25333;50.762;4.470;2023-07-13T04:25:31;8.43;;;2.03;;
38972;SDS011;25333;50.762;4.470;2023-07-13T04:27:56;7.93;;;1.63;;
38972;SDS011;25333;50.762;4.470;2023-07-13T04:30:22;5.05;;;1.45;;
38972;SDS011;25333;50.762;4.470;2023-07-13T04:32:49;10.50;;;2.22;;
38972;SDS011;25333;50.762;4.470;2023-07-13T04:35:17;5.83;;;1.37;;
38972;SDS011;25333;50.762;4.470;2023-07-13T04:37:43;8.35;;;1.70;;
38972;SDS011;25333;50.762;4.470;2023-07-13T04:40:08;5.77;;;1.63;;
38972;SDS011;25333;50.762;4.470;2023-07-13T04:42:37;6.30;;;1.58;;
38972;SDS011;25333;50.762;4.470;2023-07-13T04:45:04;8.25;;;1.92;;
38972;SDS011;25333;50.762;4.470;2023-07-13T04:47:31;8.27;;;1.58;;
38972;SDS011;25333;50.762;4.470;2023-07-13T04:49:57;4.17;;;1.60;;
38972;SDS011;25333;50.762;4.470;2023-07-13T04:52:23;5.63;;;1.57;;
38972;SDS011;25333;50.762;4.470;2023-07-13T04:54:48;8.38;;;1.52;;
38972;SDS011;25333;50.762;4.470;2023-07-13T04:57:14;6.90;;;2.10;;
38972;SDS011;25333;50.762;4.470;2023-07-13T04:59:40;4.50;;;1.10;;
38972;SDS011;25333;50.762;4.470;2023-07-13T05:02:05;14.90;;;2.35;;
38972;SDS011;25333;50.762;4.470;2023-07-13T05:04:31;4.88;;;1.10;;
38972;SDS011;25333;50.762;4.470;2023-07-13T05:06:57;7.47;;;1.83;;
38972;SDS011;25333;50.762;4.470;2023-07-13T05:09:22;5.60;;;1.60;;
38972;SDS011;25333;50.762;4.470;2023-07-13T05:11:48;4.75;;;1.52;;
38972;SDS011;25333;50.762;4.470;2023-07-13T05:14:13;7.60;;;1.73;;
38972;SDS011;25333;50.762;4.470;2023-07-13T05:16:41;12.75;;;1.92;;
38972;SDS011;25333;50.762;4.470;2023-07-13T05:19:07;7.50;;;1.43;;
38972;SDS011;25333;50.762;4.470;2023-07-13T05:21:33;11.15;;;2.08;;
38972;SDS011;25333;50.762;4.470;2023-07-13T05:23:59;7.30;;;1.33;;
38972;SDS011;25333;50.762;4.470;2023-07-13T05:26:24;6.50;;;1.50;;
38972;SDS011;25333;50.762;4.470;2023-07-13T05:28:50;11.90;;;2.03;;
38972;SDS011;25333;50.762;4.470;2023-07-13T05:31:16;5.37;;;1.43;;
38972;SDS011;25333;50.762;4.470;2023-07-13T05:33:41;5.80;;;1.90;;
38972;SDS011;25333;50.762;4.470;2023-07-13T05:36:07;7.67;;;2.10;;
38972;SDS011;25333;50.762;4.470;2023-07-13T05:38:33;5.78;;;1.30;;
38972;SDS011;25333;50.762;4.470;2023-07-13T05:40:59;5.75;;;2.28;;
38972;SDS011;25333;50.762;4.470;2023-07-13T05:43:25;8.27;;;1.67;;
38972;SDS011;25333;50.762;4.470;2023-07-13T05:45:52;7.10;;;1.73;;
38972;SDS011;25333;50.762;4.470;2023-07-13T05:48:19;9.43;;;1.63;;
38972;SDS011;25333;50.762;4.470;2023-07-13T05:50:44;5.27;;;1.10;;
38972;SDS011;25333;50.762;4.470;2023-07-13T05:53:10;6.45;;;1.38;;
38972;SDS011;25333;50.762;4.470;2023-07-13T05:55:40;7.07;;;1.67;;
38972;SDS011;25333;50.762;4.470;2023-07-13T05:58:07;6.75;;;2.00;;
38972;SDS011;25333;50.762;4.470;2023-07-13T06:00:32;8.00;;;1.88;;
38972;SDS011;25333;50.762;4.470;2023-07-13T06:02:58;7.23;;;2.07;;
38972;SDS011;25333;50.762;4.470;2023-07-13T06:05:24;7.45;;;2.03;;
38972;SDS011;25333;50.762;4.470;2023-07-13T06:07:49;9.18;;;2.13;;
38972;SDS011;25333;50.762;4.470;2023-07-13T06:10:15;8.10;;;2.47;;
38972;SDS011;25333;50.762;4.470;2023-07-13T06:12:41;5.57;;;1.37;;
38972;SDS011;25333;50.762;4.470;2023-07-13T06:15:08;6.73;;;2.10;;
38972;SDS011;25333;50.762;4.470;2023-07-13T06:17:33;8.68;;;1.90;;
38972;SDS011;25333;50.762;4.470;2023-07-13T06:19:59;5.80;;;1.80;;
38972;SDS011;25333;50.762;4.470;2023-07-13T06:22:24;5.80;;;2.17;;
38972;SDS011;25333;50.762;4.470;2023-07-13T06:24:50;9.70;;;2.03;;
38972;SDS011;25333;50.762;4.470;2023-07-13T06:27:16;6.35;;;1.73;;
38972;SDS011;25333;50.762;4.470;2023-07-13T06:29:42;7.83;;;2.07;;
38972;SDS011;25333;50.762;4.470;2023-07-13T06:32:10;4.47;;;1.52;;
38972;SDS011;25333;50.762;4.470;2023-07-13T06:34:36;6.65;;;1.75;;
38972;SDS011;25333;50.762;4.470;2023-07-13T06:37:01;7.50;;;2.30;;
38972;SDS011;25333;50.762;4.470;2023-07-13T06:39:27;6.32;;;1.60;;
38972;SDS011;25333;50.762;4.470;2023-07-13T06:41:53;5.53;;;1.75;;
38972;SDS011;25333;50.762;4.470;2023-07-13T06:44:18;9.00;;;2.25;;
38972;SDS011;25333;50.762;4.470;2023-07-13T06:46:44;7.05;;;1.60;;
38972;SDS011;25333;50.762;4.470;2023-07-13T06:49:09;4.40;;;1.27;;
38972;SDS011;25333;50.762;4.470;2023-07-13T06:51:35;10.83;;;2.43;;
38972;SDS011;25333;50.762;4.470;2023-07-13T06:54:00;7.20;;;2.27;;
38972;SDS011;25333;50.762;4.470;2023-07-13T06:56:26;10.40;;;1.77;;
38972;SDS011;25333;50.762;4.470;2023-07-13T06:58:51;7.13;;;2.70;;
38972;SDS011;25333;50.762;4.470;2023-07-13T07:01:17;6.97;;;2.23;;
38972;SDS011;25333;50.762;4.470;2023-07-13T07:03:43;6.35;;;2.13;;
38972;SDS011;25333;50.762;4.470;2023-07-13T07:06:12;6.10;;;1.50;;
38972;SDS011;25333;50.762;4.470;2023-07-13T07:08:40;7.37;;;2.10;;
38972;SDS011;25333;50.762;4.470;2023-07-13T07:11:08;5.85;;;1.60;;
38972;SDS011;25333;50.762;4.470;2023-07-13T07:13:36;5.88;;;1.92;;
38972;SDS011;25333;50.762;4.470;2023-07-13T07:16:02;7.87;;;1.63;;
38972;SDS011;25333;50.762;4.470;2023-07-13T07:18:27;5.63;;;2.00;;
38972;SDS011;25333;50.762;4.470;2023-07-13T07:20:53;7.60;;;2.00;;
38972;SDS011;25333;50.762;4.470;2023-07-13T07:23:18;6.00;;;1.88;;
38972;SDS011;25333;50.762;4.470;2023-07-13T07:25:44;9.32;;;2.20;;
38972;SDS011;25333;50.762;4.470;2023-07-13T07:28:10;9.90;;;2.30;;
38972;SDS011;25333;50.762;4.470;2023-07-13T07:30:36;7.60;;;2.20;;
38972;SDS011;25333;50.762;4.470;2023-07-13T07:33:03;6.47;;;1.88;;
38972;SDS011;25333;50.762;4.470;2023-07-13T07:35:28;6.70;;;1.87;;
38972;SDS011;25333;50.762;4.470;2023-07-13T07:37:54;5.80;;;1.70;;
38972;SDS011;25333;50.762;4.470;2023-07-13T07:40:19;7.13;;;1.80;;
38972;SDS011;25333;50.762;4.470;2023-07-13T07:42:45;5.50;;;1.70;;
38972;SDS011;25333;50.762;4.470;2023-07-13T07:45:11;9.48;;;1.67;;
38972;SDS011;25333;50.762;4.470;2023-07-13T07:47:37;9.63;;;2.05;;
38972;SDS011;25333;50.762;4.470;2023-07-13T07:50:03;7.25;;;1.52;;
38972;SDS011;25333;50.762;4.470;2023-07-13T07:52:29;6.35;;;1.70;;
38972;SDS011;25333;50.762;4.470;2023-07-13T07:54:55;6.90;;;1.92;;
38972;SDS011;25333;50.762;4.470;2023-07-13T07:57:20;8.45;;;1.60;;
38972;SDS011;25333;50.762;4.470;2023-07-13T07:59:46;8.57;;;1.67;;
38972;SDS011;25333;50.762;4.470;2023-07-13T08:02:13;3.63;;;1.90;;
38972;SDS011;25333;50.762;4.470;2023-07-13T08:04:39;7.25;;;2.13;;
38972;SDS011;25333;50.762;4.470;2023-07-13T08:07:04;7.40;;;2.17;;
38972;SDS011;25333;50.762;4.470;2023-07-13T08:09:30;6.95;;;1.70;;
38972;SDS011;25333;50.762;4.470;2023-07-13T08:11:56;5.17;;;1.50;;
38972;SDS011;25333;50.762;4.470;2023-07-13T08:14:21;7.10;;;2.07;;
38972;SDS011;25333;50.762;4.470;2023-07-13T08:16:47;5.30;;;1.60;;
38972;SDS011;25333;50.762;4.470;2023-07-13T08:19:12;5.07;;;1.47;;
38972;SDS011;25333;50.762;4.470;2023-07-13T08:21:38;5.35;;;1.52;;
38972;SDS011;25333;50.762;4.470;2023-07-13T08:24:04;4.90;;;1.40;;
38972;SDS011;25333;50.762;4.470;2023-07-13T08:26:29;5.72;;;1.77;;
38972;SDS011;25333;50.762;4.470;2023-07-13T08:28:55;5.82;;;1.63;;
38972;SDS011;25333;50.762;4.470;2023-07-13T08:31:20;6.57;;;1.70;;
38972;SDS011;25333;50.762;4.470;2023-07-13T08:33:46;8.07;;;1.87;;
38972;SDS011;25333;50.762;4.470;2023-07-13T08:36:12;6.23;;;1.77;;
38972;SDS011;25333;50.762;4.470;2023-07-13T08:38:37;4.63;;;1.43;;
38972;SDS011;25333;50.762;4.470;2023-07-13T08:41:09;7.87;;;1.97;;
38972;SDS011;25333;50.762;4.470;2023-07-13T08:43:38;7.32;;;1.85;;
38972;SDS011;25333;50.762;4.470;2023-07-13T08:48:31;4.95;;;1.45;;
38972;SDS011;25333;50.762;4.470;2023-07-13T08:56:01;7.40;;;1.88;;
38972;SDS011;25333;50.762;4.470;2023-07-13T08:58:27;6.43;;;1.52;;
38972;SDS011;25333;50.762;4.470;2023-07-13T09:06:49;3.97;;;1.40;;
38972;SDS011;25333;50.762;4.470;2023-07-13T09:09:22;7.97;;;1.83;;
38972;SDS011;25333;50.762;4.470;2023-07-13T09:11:56;7.78;;;1.73;;
38972;SDS011;25333;50.762;4.470;2023-07-13T09:14:41;4.90;;;1.67;;
38972;SDS011;25333;50.762;4.470;2023-07-13T09:17:18;5.13;;;1.42;;
38972;SDS011;25333;50.762;4.470;2023-07-13T09:20:06;6.78;;;1.77;;
38972;SDS011;25333;50.762;4.470;2023-07-13T09:22:48;4.85;;;1.10;;
38972;SDS011;25333;50.762;4.470;2023-07-13T09:25:30;8.13;;;1.60;;
38972;SDS011;25333;50.762;4.470;2023-07-13T09:30:42;5.25;;;1.10;;
38972;SDS011;25333;50.762;4.470;2023-07-13T09:33:20;6.45;;;0.90;;
38972;SDS011;25333;50.762;4.470;2023-07-13T09:35:47;5.13;;;1.13;;
38972;SDS011;25333;50.762;4.470;2023-07-13T09:38:15;4.07;;;1.30;;
38972;SDS011;25333;50.762;4.470;2023-07-13T09:43:15;5.73;;;1.10;;
38972;SDS011;25333;50.762;4.470;2023-07-13T09:45:45;6.60;;;1.20;;
38972;SDS011;25333;50.762;4.470;2023-07-13T09:48:12;3.80;;;0.90;;
38972;SDS011;25333;50.762;4.470;2023-07-13T09:50:40;5.07;;;1.17;;
38972;SDS011;25333;50.762;4.470;2023-07-13T09:53:11;3.50;;;0.98;;
38972;SDS011;25333;50.762;4.470;2023-07-13T09:55:41;3.85;;;0.63;;
38972;SDS011;25333;50.762;4.470;2023-07-13T09:58:29;5.78;;;1.05;;
38972;SDS011;25333;50.762;4.470;2023-07-13T10:01:03;2.78;;;1.00;;
38972;SDS011;25333;50.762;4.470;2023-07-13T10:03:33;3.10;;;0.98;;
38972;SDS011;25333;50.762;4.470;2023-07-13T10:06:11;4.40;;;1.87;;
38972;SDS011;25333;50.762;4.470;2023-07-13T10:08:37;3.20;;;1.13;;
38972;SDS011;25333;50.762;4.470;2023-07-13T10:11:09;3.73;;;0.93;;
38972;SDS011;25333;50.762;4.470;2023-07-13T10:13:45;2.53;;;0.98;;
38972;SDS011;25333;50.762;4.470;2023-07-13T10:16:21;3.75;;;0.90;;
38972;SDS011;25333;50.762;4.470;2023-07-13T10:18:50;2.30;;;0.85;;
38972;SDS011;25333;50.762;4.470;2023-07-13T10:21:20;5.38;;;1.05;;
38972;SDS011;25333;50.762;4.470;2023-07-13T10:23:49;5.15;;;0.93;;
38972;SDS011;25333;50.762;4.470;2023-07-13T10:26:22;3.25;;;0.82;;
38972;SDS011;25333;50.762;4.470;2023-07-13T10:28:53;3.58;;;0.90;;
38972;SDS011;25333;50.762;4.470;2023-07-13T10:31:21;2.40;;;0.83;;
38972;SDS011;25333;50.762;4.470;2023-07-13T10:33:48;2.53;;;0.75;;
38972;SDS011;25333;50.762;4.470;2023-07-13T10:36:20;4.75;;;1.25;;
38972;SDS011;25333;50.762;4.470;2023-07-13T10:38:51;4.55;;;0.90;;
38972;SDS011;25333;50.762;4.470;2023-07-13T10:41:20;2.65;;;0.85;;
38972;SDS011;25333;50.762;4.470;2023-07-13T10:43:49;3.72;;;1.08;;
38972;SDS011;25333;50.762;4.470;2023-07-13T10:46:18;3.65;;;0.65;;
38972;SDS011;25333;50.762;4.470;2023-07-13T10:48:46;2.63;;;0.82;;
38972;SDS011;25333;50.762;4.470;2023-07-13T10:51:16;5.27;;;1.17;;
38972;SDS011;25333;50.762;4.470;2023-07-13T10:53:46;3.65;;;1.20;;
38972;SDS011;25333;50.762;4.470;2023-07-13T10:56:30;4.13;;;1.07;;
38972;SDS011;25333;50.762;4.470;2023-07-13T11:04:44;3.53;;;0.90;;
38972;SDS011;25333;50.762;4.470;2023-07-13T11:07:25;2.58;;;0.95;;
38972;SDS011;25333;50.762;4.470;2023-07-13T11:09:56;2.80;;;0.85;;
38972;SDS011;25333;50.762;4.470;2023-07-13T11:38:33;6.40;;;1.27;;
38972;SDS011;25333;50.762;4.470;2023-07-13T11:41:19;2.90;;;0.60;;
38972;SDS011;25333;50.762;4.470;2023-07-13T11:43:48;1.73;;;0.47;;
38972;SDS011;25333;50.762;4.470;2023-07-13T11:46:18;1.40;;;0.50;;
38972;SDS011;25333;50.762;4.470;2023-07-13T11:48:50;2.85;;;0.77;;
38972;SDS011;25333;50.762;4.470;2023-07-13T11:51:32;3.97;;;0.60;;
38972;SDS011;25333;50.762;4.470;2023-07-13T11:54:01;2.95;;;0.57;;
38972;SDS011;25333;50.762;4.470;2023-07-13T11:56:29;2.92;;;1.00;;
38972;SDS011;25333;50.762;4.470;2023-07-13T11:58:57;2.20;;;0.50;;
38972;SDS011;25333;50.762;4.470;2023-07-13T12:01:29;2.40;;;0.70;;
38972;SDS011;25333;50.762;4.470;2023-07-13T12:03:57;1.53;;;0.57;;
38972;SDS011;25333;50.762;4.470;2023-07-13T12:06:29;2.55;;;0.77;;
38972;SDS011;25333;50.762;4.470;2023-07-13T12:09:02;2.20;;;0.60;;
38972;SDS011;25333;50.762;4.470;2023-07-13T12:11:29;2.17;;;0.60;;
38972;SDS011;25333;50.762;4.470;2023-07-13T12:13:55;2.00;;;0.40;;
38972;SDS011;25333;50.762;4.470;2023-07-13T12:16:31;4.43;;;0.57;;
38972;SDS011;25333;50.762;4.470;2023-07-13T12:18:58;2.97;;;0.40;;
38972;SDS011;25333;50.762;4.470;2023-07-13T12:21:36;2.92;;;0.40;;
38972;SDS011;25333;50.762;4.470;2023-07-13T12:24:03;1.43;;;0.50;;
38972;SDS011;25333;50.762;4.470;2023-07-13T12:26:30;2.07;;;0.60;;
38972;SDS011;25333;50.762;4.470;2023-07-13T12:28:58;2.35;;;0.30;;
38972;SDS011;25333;50.762;4.470;2023-07-13T12:33:59;1.53;;;0.37;;
38972;SDS011;25333;50.762;4.470;2023-07-13T12:36:28;3.00;;;0.70;;
38972;SDS011;25333;50.762;4.470;2023-07-13T12:38:57;3.80;;;0.70;;
38972;SDS011;25333;50.762;4.470;2023-07-13T12:41:29;2.33;;;0.33;;
38972;SDS011;25333;50.762;4.470;2023-07-13T12:43:55;1.05;;;0.30;;
38972;SDS011;25333;50.762;4.470;2023-07-13T12:46:21;3.10;;;0.40;;
38972;SDS011;25333;50.762;4.470;2023-07-13T12:48:52;2.40;;;0.60;;
38972;SDS011;25333;50.762;4.470;2023-07-13T12:51:22;2.50;;;0.50;;
38972;SDS011;25333;50.762;4.470;2023-07-13T12:53:57;3.40;;;0.75;;
38972;SDS011;25333;50.762;4.470;2023-07-13T12:56:30;2.00;;;0.38;;
38972;SDS011;25333;50.762;4.470;2023-07-13T12:59:00;1.92;;;0.80;;
38972;SDS011;25333;50.762;4.470;2023-07-13T13:01:27;2.38;;;0.50;;
38972;SDS011;25333;50.762;4.470;2023-07-13T13:03:54;3.53;;;0.75;;
38972;SDS011;25333;50.762;4.470;2023-07-13T13:06:23;2.90;;;0.70;;
38972;SDS011;25333;50.762;4.470;2023-07-13T13:08:52;2.15;;;0.55;;
38972;SDS011;25333;50.762;4.470;2023-07-13T13:11:20;1.92;;;0.77;;
38972;SDS011;25333;50.762;4.470;2023-07-13T13:13:48;2.42;;;0.68;;
38972;SDS011;25333;50.762;4.470;2023-07-13T13:16:17;3.33;;;0.50;;
38972;SDS011;25333;50.762;4.470;2023-07-13T13:18:47;3.00;;;0.80;;
38972;SDS011;25333;50.762;4.470;2023-07-13T13:21:14;4.38;;;0.73;;
38972;SDS011;25333;50.762;4.470;2023-07-13T13:23:40;2.90;;;0.70;;
38972;SDS011;25333;50.762;4.470;2023-07-13T13:26:10;1.67;;;0.52;;
38972;SDS011;25333;50.762;4.470;2023-07-13T13:28:37;1.10;;;0.50;;
38972;SDS011;25333;50.762;4.470;2023-07-13T13:31:03;3.03;;;0.60;;
38972;SDS011;25333;50.762;4.470;2023-07-13T13:33:28;2.40;;;0.88;;
38972;SDS011;25333;50.762;4.470;2023-07-13T13:35:55;2.67;;;0.50;;
38972;SDS011;25333;50.762;4.470;2023-07-13T13:38:25;2.22;;;0.40;;
38972;SDS011;25333;50.762;4.470;2023-07-13T13:40:52;1.85;;;0.80;;
38972;SDS011;25333;50.762;4.470;2023-07-13T13:43:23;2.00;;;0.57;;
38972;SDS011;25333;50.762;4.470;2023-07-13T13:45:55;1.98;;;0.55;;
38972;SDS011;25333;50.762;4.470;2023-07-13T13:48:31;3.35;;;1.30;;
38972;SDS011;25333;50.762;4.470;2023-07-13T13:51:00;2.10;;;0.75;;
38972;SDS011;25333;50.762;4.470;2023-07-13T13:53:31;3.25;;;0.80;;
38972;SDS011;25333;50.762;4.470;2023-07-13T13:55:56;1.27;;;0.50;;
38972;SDS011;25333;50.762;4.470;2023-07-13T13:58:22;1.30;;;0.47;;
38972;SDS011;25333;50.762;4.470;2023-07-13T14:00:47;1.80;;;0.50;;
38972;SDS011;25333;50.762;4.470;2023-07-13T14:03:18;3.40;;;0.57;;
38972;SDS011;25333;50.762;4.470;2023-07-13T14:05:44;2.10;;;0.60;;
38972;SDS011;25333;50.762;4.470;2023-07-13T14:08:14;2.97;;;0.68;;
38972;SDS011;25333;50.762;4.470;2023-07-13T14:10:42;1.58;;;0.57;;
38972;SDS011;25333;50.762;4.470;2023-07-13T14:13:16;1.70;;;0.40;;
38972;SDS011;25333;50.762;4.470;2023-07-13T14:15:42;1.02;;;0.40;;
38972;SDS011;25333;50.762;4.470;2023-07-13T14:18:08;2.30;;;0.73;;
38972;SDS011;25333;50.762;4.470;2023-07-13T14:20:34;3.50;;;0.80;;
38972;SDS011;25333;50.762;4.470;2023-07-13T14:22:59;1.83;;;0.47;;
38972;SDS011;25333;50.762;4.470;2023-07-13T14:25:25;2.50;;;0.40;;
38972;SDS011;25333;50.762;4.470;2023-07-13T14:27:55;2.38;;;0.52;;
38972;SDS011;25333;50.762;4.470;2023-07-13T14:30:24;1.63;;;0.50;;
38972;SDS011;25333;50.762;4.470;2023-07-13T14:32:50;2.75;;;0.50;;
38972;SDS011;25333;50.762;4.470;2023-07-13T14:35:16;1.48;;;0.40;;
38972;SDS011;25333;50.762;4.470;2023-07-13T14:37:45;2.30;;;0.50;;
38972;SDS011;25333;50.762;4.470;2023-07-13T14:40:15;2.30;;;0.50;;
38972;SDS011;25333;50.762;4.470;2023-07-13T14:42:49;1.65;;;0.57;;
38972;SDS011;25333;50.762;4.470;2023-07-13T14:45:16;2.55;;;0.55;;
38972;SDS011;25333;50.762;4.470;2023-07-13T14:47:43;3.30;;;1.00;;
38972;SDS011;25333;50.762;4.470;2023-07-13T14:50:17;2.97;;;0.50;;
38972;SDS011;25333;50.762;4.470;2023-07-13T14:52:45;2.80;;;0.77;;
38972;SDS011;25333;50.762;4.470;2023-07-13T14:55:13;1.57;;;0.70;;
38972;SDS011;25333;50.762;4.470;2023-07-13T14:57:40;1.83;;;0.60;;
38972;SDS011;25333;50.762;4.470;2023-07-13T15:00:13;2.63;;;1.00;;
38972;SDS011;25333;50.762;4.470;2023-07-13T15:02:45;2.83;;;0.50;;
38972;SDS011;25333;50.762;4.470;2023-07-13T15:05:14;2.90;;;0.75;;
38972;SDS011;25333;50.762;4.470;2023-07-13T15:07:46;1.90;;;0.77;;
38972;SDS011;25333;50.762;4.470;2023-07-13T15:10:20;3.75;;;0.63;;
38972;SDS011;25333;50.762;4.470;2023-07-13T15:12:50;3.38;;;0.70;;
38972;SDS011;25333;50.762;4.470;2023-07-13T15:15:16;2.00;;;0.70;;
38972;SDS011;25333;50.762;4.470;2023-07-13T15:17:43;1.65;;;0.40;;
38972;SDS011;25333;50.762;4.470;2023-07-13T15:20:14;1.35;;;0.35;;
38972;SDS011;25333;50.762;4.470;2023-07-13T15:22:52;3.10;;;0.60;;
38972;SDS011;25333;50.762;4.470;2023-07-13T15:25:19;4.03;;;1.05;;
38972;SDS011;25333;50.762;4.470;2023-07-13T15:27:47;2.97;;;0.80;;
38972;SDS011;25333;50.762;4.470;2023-07-13T15:30:13;2.42;;;0.63;;
38972;SDS011;25333;50.762;4.470;2023-07-13T15:32:41;2.15;;;0.80;;
38972;SDS011;25333;50.762;4.470;2023-07-13T15:37:59;2.63;;;0.80;;
38972;SDS011;25333;50.762;4.470;2023-07-13T15:40:25;7.00;;;0.97;;
38972;SDS011;25333;50.762;4.470;2023-07-13T15:42:50;3.73;;;1.07;;
38972;SDS011;25333;50.762;4.470;2023-07-13T15:45:18;5.45;;;0.80;;
38972;SDS011;25333;50.762;4.470;2023-07-13T15:47:44;1.48;;;0.60;;
38972;SDS011;25333;50.762;4.470;2023-07-13T15:50:12;3.20;;;0.95;;
38972;SDS011;25333;50.762;4.470;2023-07-13T15:52:41;2.72;;;0.60;;